Swan Point, Maryland
Current Conditions -  °F | °C
As of 10:57 PM on Friday 24 Oct 2014 (Local Time) from K2W6 Reporting Station
Clear Clear  
Wind Chill: 48°   Ceiling: Unl
Heat Index: 48°   Visibility: 10mi
Dew Point: 39°   Wind: 0mph
Humidity: 71%   Direction: NA
Pressure: 29.96"   Gusts: NA
Location:  38.3032°N, 76.8671°W
Report Text: K2W6 250257Z AUTO 00000KT 10SM CLR 09/04 A2996 RMK AO1
Loading
Personal Weather Stations






























Interactive Weather Map
Tropical Storm Tracking
New forecast layout! Learn more

10-Day Weather Forecast

Advertisements
Track Severe Weather on mobile